sensor_id;sensor_type;location;lat;lon;timestamp;temperature;humidity
47434;SHT31;33184;48.774;8.918;2022-12-24T00:00:59;10.35;81.66
47434;SHT31;33184;48.774;8.918;2022-12-24T00:06:22;10.39;81.52
47434;SHT31;33184;48.774;8.918;2022-12-24T00:11:43;10.36;81.82
47434;SHT31;33184;48.774;8.918;2022-12-24T00:17:03;10.38;81.85
47434;SHT31;33184;48.774;8.918;2022-12-24T00:22:24;10.29;82.24
47434;SHT31;33184;48.774;8.918;2022-12-24T00:27:44;10.22;82.57
47434;SHT31;33184;48.774;8.918;2022-12-24T00:33:05;10.21;82.68
47434;SHT31;33184;48.774;8.918;2022-12-24T00:38:26;10.19;82.43
47434;SHT31;33184;48.774;8.918;2022-12-24T00:43:46;10.24;81.95
47434;SHT31;33184;48.774;8.918;2022-12-24T00:49:08;10.19;81.99
47434;SHT31;33184;48.774;8.918;2022-12-24T00:54:28;10.25;81.32
47434;SHT31;33184;48.774;8.918;2022-12-24T00:59:49;10.22;81.84
47434;SHT31;33184;48.774;8.918;2022-12-24T01:05:10;10.09;82.36
47434;SHT31;33184;48.774;8.918;2022-12-24T01:10:31;10.11;82.29
47434;SHT31;33184;48.774;8.918;2022-12-24T01:15:52;10.12;82.16
47434;SHT31;33184;48.774;8.918;2022-12-24T01:21:12;10.12;82.42
47434;SHT31;33184;48.774;8.918;2022-12-24T01:26:33;10.09;82.35
47434;SHT31;33184;48.774;8.918;2022-12-24T01:31:54;10.12;82.23
47434;SHT31;33184;48.774;8.918;2022-12-24T01:37:14;10.08;82.71
47434;SHT31;33184;48.774;8.918;2022-12-24T01:42:37;9.97;84.95
47434;SHT31;33184;48.774;8.918;2022-12-24T01:53:45;9.88;88.22
47434;SHT31;33184;48.774;8.918;2022-12-24T01:59:09;9.77;88.92
47434;SHT31;33184;48.774;8.918;2022-12-24T02:04:54;9.73;89.07
47434;SHT31;33184;48.774;8.918;2022-12-24T02:10:15;9.73;88.60
47434;SHT31;33184;48.774;8.918;2022-12-24T02:15:48;9.74;88.30
47434;SHT31;33184;48.774;8.918;2022-12-24T02:27:08;9.70;88.01
47434;SHT31;33184;48.774;8.918;2022-12-24T02:43:26;9.84;82.44
47434;SHT31;33184;48.774;8.918;2022-12-24T02:48:48;9.97;82.25
47434;SHT31;33184;48.774;8.918;2022-12-24T02:54:10;9.94;81.34
47434;SHT31;33184;48.774;8.918;2022-12-24T03:05:17;9.93;81.68
47434;SHT31;33184;48.774;8.918;2022-12-24T03:10:46;10.00;81.19
47434;SHT31;33184;48.774;8.918;2022-12-24T03:16:12;9.88;81.55
47434;SHT31;33184;48.774;8.918;2022-12-24T03:21:35;9.93;81.31
47434;SHT31;33184;48.774;8.918;2022-12-24T03:26:58;9.94;81.63
47434;SHT31;33184;48.774;8.918;2022-12-24T03:32:24;9.87;82.13
47434;SHT31;33184;48.774;8.918;2022-12-24T03:37:46;9.77;82.52
47434;SHT31;33184;48.774;8.918;2022-12-24T03:43:07;9.77;82.66
47434;SHT31;33184;48.774;8.918;2022-12-24T03:48:28;9.77;82.82
47434;SHT31;33184;48.774;8.918;2022-12-24T03:53:48;9.80;83.05
47434;SHT31;33184;48.774;8.918;2022-12-24T03:59:09;9.77;83.48
47434;SHT31;33184;48.774;8.918;2022-12-24T04:04:29;9.71;83.75
47434;SHT31;33184;48.774;8.918;2022-12-24T04:09:51;9.66;84.13
47434;SHT31;33184;48.774;8.918;2022-12-24T04:15:12;9.66;84.02
47434;SHT31;33184;48.774;8.918;2022-12-24T04:20:32;9.67;83.65
47434;SHT31;33184;48.774;8.918;2022-12-24T04:25:53;9.73;83.05
47434;SHT31;33184;48.774;8.918;2022-12-24T04:31:15;9.61;83.08
47434;SHT31;33184;48.774;8.918;2022-12-24T04:36:37;9.56;82.97
47434;SHT31;33184;48.774;8.918;2022-12-24T04:41:57;9.53;83.02
47434;SHT31;33184;48.774;8.918;2022-12-24T04:47:18;9.53;83.09
47434;SHT31;33184;48.774;8.918;2022-12-24T04:52:38;9.50;83.04
47434;SHT31;33184;48.774;8.918;2022-12-24T04:57:59;9.61;81.95
47434;SHT31;33184;48.774;8.918;2022-12-24T05:03:19;9.68;81.48
47434;SHT31;33184;48.774;8.918;2022-12-24T05:08:41;9.75;81.23
47434;SHT31;33184;48.774;8.918;2022-12-24T05:14:02;9.66;81.37
47434;SHT31;33184;48.774;8.918;2022-12-24T05:19:23;9.71;80.93
47434;SHT31;33184;48.774;8.918;2022-12-24T05:24:43;9.70;80.39
47434;SHT31;33184;48.774;8.918;2022-12-24T05:30:23;9.66;80.55
47434;SHT31;33184;48.774;8.918;2022-12-24T05:35:43;9.63;80.16
47434;SHT31;33184;48.774;8.918;2022-12-24T05:41:04;9.57;80.40
47434;SHT31;33184;48.774;8.918;2022-12-24T05:46:25;9.56;79.77
47434;SHT31;33184;48.774;8.918;2022-12-24T05:51:45;9.51;80.20
47434;SHT31;33184;48.774;8.918;2022-12-24T05:57:06;9.48;79.86
47434;SHT31;33184;48.774;8.918;2022-12-24T06:02:27;9.43;80.04
47434;SHT31;33184;48.774;8.918;2022-12-24T06:07:47;9.35;80.31
47434;SHT31;33184;48.774;8.918;2022-12-24T06:13:08;9.42;80.99
47434;SHT31;33184;48.774;8.918;2022-12-24T06:18:30;9.32;80.33
47434;SHT31;33184;48.774;8.918;2022-12-24T06:23:51;9.22;80.50
47434;SHT31;33184;48.774;8.918;2022-12-24T06:29:12;9.15;80.93
47434;SHT31;33184;48.774;8.918;2022-12-24T06:34:32;9.03;81.30
47434;SHT31;33184;48.774;8.918;2022-12-24T06:39:53;8.92;81.81
47434;SHT31;33184;48.774;8.918;2022-12-24T06:45:13;8.88;82.15
47434;SHT31;33184;48.774;8.918;2022-12-24T06:50:34;8.87;82.63
47434;SHT31;33184;48.774;8.918;2022-12-24T06:56:03;9.03;81.59
47434;SHT31;33184;48.774;8.918;2022-12-24T07:01:24;9.19;81.17
47434;SHT31;33184;48.774;8.918;2022-12-24T07:06:44;9.18;81.29
47434;SHT31;33184;48.774;8.918;2022-12-24T07:12:05;9.06;81.71
47434;SHT31;33184;48.774;8.918;2022-12-24T07:17:25;9.03;81.80
47434;SHT31;33184;48.774;8.918;2022-12-24T07:22:46;8.95;82.17
47434;SHT31;33184;48.774;8.918;2022-12-24T07:28:06;8.87;82.58
47434;SHT31;33184;48.774;8.918;2022-12-24T07:33:27;8.65;82.88
47434;SHT31;33184;48.774;8.918;2022-12-24T07:38:48;8.48;83.50
47434;SHT31;33184;48.774;8.918;2022-12-24T07:44:12;8.41;84.03
47434;SHT31;33184;48.774;8.918;2022-12-24T07:49:33;8.40;84.21
47434;SHT31;33184;48.774;8.918;2022-12-24T07:54:55;8.34;84.40
47434;SHT31;33184;48.774;8.918;2022-12-24T08:00:16;8.33;84.77
47434;SHT31;33184;48.774;8.918;2022-12-24T08:05:37;8.29;85.05
47434;SHT31;33184;48.774;8.918;2022-12-24T08:11:01;8.24;85.45
47434;SHT31;33184;48.774;8.918;2022-12-24T08:16:22;8.24;85.81
47434;SHT31;33184;48.774;8.918;2022-12-24T08:21:43;8.31;85.71
47434;SHT31;33184;48.774;8.918;2022-12-24T08:27:03;8.40;85.45
47434;SHT31;33184;48.774;8.918;2022-12-24T08:32:24;8.50;85.05
47434;SHT31;33184;48.774;8.918;2022-12-24T08:37:44;8.57;84.73
47434;SHT31;33184;48.774;8.918;2022-12-24T08:43:05;8.78;83.90
47434;SHT31;33184;48.774;8.918;2022-12-24T08:48:25;8.91;82.77
47434;SHT31;33184;48.774;8.918;2022-12-24T08:53:46;9.01;82.28
47434;SHT31;33184;48.774;8.918;2022-12-24T08:59:06;9.05;82.34
47434;SHT31;33184;48.774;8.918;2022-12-24T09:04:27;9.03;82.45
47434;SHT31;33184;48.774;8.918;2022-12-24T09:09:48;8.93;82.80
47434;SHT31;33184;48.774;8.918;2022-12-24T09:15:09;8.75;83.59
47434;SHT31;33184;48.774;8.918;2022-12-24T09:20:30;8.74;84.22
47434;SHT31;33184;48.774;8.918;2022-12-24T09:25:50;8.89;84.49
47434;SHT31;33184;48.774;8.918;2022-12-24T09:31:11;9.01;84.41
47434;SHT31;33184;48.774;8.918;2022-12-24T09:36:33;9.12;84.15
47434;SHT31;33184;48.774;8.918;2022-12-24T09:47:40;9.48;82.62
47434;SHT31;33184;48.774;8.918;2022-12-24T09:53:09;9.78;83.21
47434;SHT31;33184;48.774;8.918;2022-12-24T09:58:40;10.04;80.60
47434;SHT31;33184;48.774;8.918;2022-12-24T10:04:06;10.11;80.92
47434;SHT31;33184;48.774;8.918;2022-12-24T10:15:23;10.00;80.45
47434;SHT31;33184;48.774;8.918;2022-12-24T10:20:50;10.02;80.60
47434;SHT31;33184;48.774;8.918;2022-12-24T10:26:26;10.14;79.05
47434;SHT31;33184;48.774;8.918;2022-12-24T10:32:00;10.12;79.38
47434;SHT31;33184;48.774;8.918;2022-12-24T10:37:24;10.12;79.08
47434;SHT31;33184;48.774;8.918;2022-12-24T10:42:45;10.11;79.23
47434;SHT31;33184;48.774;8.918;2022-12-24T10:48:08;10.09;79.92
47434;SHT31;33184;48.774;8.918;2022-12-24T10:53:48;10.14;80.16
47434;SHT31;33184;48.774;8.918;2022-12-24T10:59:28;10.17;80.24
47434;SHT31;33184;48.774;8.918;2022-12-24T11:04:50;10.19;80.43
47434;SHT31;33184;48.774;8.918;2022-12-24T11:10:22;10.19;81.02
47434;SHT31;33184;48.774;8.918;2022-12-24T11:15:43;10.17;81.17
47434;SHT31;33184;48.774;8.918;2022-12-24T11:21:04;10.18;81.18
47434;SHT31;33184;48.774;8.918;2022-12-24T11:26:28;10.17;81.44
47434;SHT31;33184;48.774;8.918;2022-12-24T11:31:50;10.25;81.74
47434;SHT31;33184;48.774;8.918;2022-12-24T11:37:15;10.21;81.43
47434;SHT31;33184;48.774;8.918;2022-12-24T11:42:37;10.24;81.14
47434;SHT31;33184;48.774;8.918;2022-12-24T11:48:00;10.31;81.34
47434;SHT31;33184;48.774;8.918;2022-12-24T11:53:24;10.42;81.13
47434;SHT31;33184;48.774;8.918;2022-12-24T11:58:50;10.45;80.89
47434;SHT31;33184;48.774;8.918;2022-12-24T12:04:20;10.58;80.28
47434;SHT31;33184;48.774;8.918;2022-12-24T12:09:44;10.72;79.31
47434;SHT31;33184;48.774;8.918;2022-12-24T12:15:13;10.79;77.21
47434;SHT31;33184;48.774;8.918;2022-12-24T12:20:42;10.90;76.92
47434;SHT31;33184;48.774;8.918;2022-12-24T12:32:06;11.13;76.11
47434;SHT31;33184;48.774;8.918;2022-12-24T12:37:40;11.11;74.57
47434;SHT31;33184;48.774;8.918;2022-12-24T12:54:33;12.10;71.81
47434;SHT31;33184;48.774;8.918;2022-12-24T13:00:03;12.03;71.77
47434;SHT31;33184;48.774;8.918;2022-12-24T13:11:02;12.18;71.26
47434;SHT31;33184;48.774;8.918;2022-12-24T13:22:21;12.20;69.59
47434;SHT31;33184;48.774;8.918;2022-12-24T13:27:42;12.06;69.29
47434;SHT31;33184;48.774;8.918;2022-12-24T13:33:03;11.99;70.14
47434;SHT31;33184;48.774;8.918;2022-12-24T13:44:21;11.71;70.65
47434;SHT31;33184;48.774;8.918;2022-12-24T13:49:45;11.54;69.77
47434;SHT31;33184;48.774;8.918;2022-12-24T13:55:12;11.52;70.51
47434;SHT31;33184;48.774;8.918;2022-12-24T14:00:41;11.48;70.99
47434;SHT31;33184;48.774;8.918;2022-12-24T14:06:06;11.45;71.30
47434;SHT31;33184;48.774;8.918;2022-12-24T14:11:28;11.45;71.81
47434;SHT31;33184;48.774;8.918;2022-12-24T14:16:49;11.44;72.14
47434;SHT31;33184;48.774;8.918;2022-12-24T14:27:47;11.40;71.01
47434;SHT31;33184;48.774;8.918;2022-12-24T14:33:30;11.35;71.27
47434;SHT31;33184;48.774;8.918;2022-12-24T14:38:52;11.31;71.78
47434;SHT31;33184;48.774;8.918;2022-12-24T14:44:27;11.23;72.34
47434;SHT31;33184;48.774;8.918;2022-12-24T14:55:55;11.06;73.25
47434;SHT31;33184;48.774;8.918;2022-12-24T15:06:51;10.90;73.82
47434;SHT31;33184;48.774;8.918;2022-12-24T15:12:13;10.93;75.32
47434;SHT31;33184;48.774;8.918;2022-12-24T15:17:33;10.77;74.41
47434;SHT31;33184;48.774;8.918;2022-12-24T15:22:56;10.69;74.89
47434;SHT31;33184;48.774;8.918;2022-12-24T15:28:22;10.55;75.27
47434;SHT31;33184;48.774;8.918;2022-12-24T15:33:47;10.35;76.42
47434;SHT31;33184;48.774;8.918;2022-12-24T15:39:13;10.15;77.41
47434;SHT31;33184;48.774;8.918;2022-12-24T15:44:37;10.07;77.63
47434;SHT31;33184;48.774;8.918;2022-12-24T15:49:58;9.97;78.38
47434;SHT31;33184;48.774;8.918;2022-12-24T15:55:38;9.94;78.63
47434;SHT31;33184;48.774;8.918;2022-12-24T16:01:01;9.87;78.81
47434;SHT31;33184;48.774;8.918;2022-12-24T16:06:23;9.86;79.06
47434;SHT31;33184;48.774;8.918;2022-12-24T16:11:43;9.71;79.72
47434;SHT31;33184;48.774;8.918;2022-12-24T16:17:17;9.54;80.48
47434;SHT31;33184;48.774;8.918;2022-12-24T16:22:38;9.54;80.32
47434;SHT31;33184;48.774;8.918;2022-12-24T16:28:00;9.54;80.66
47434;SHT31;33184;48.774;8.918;2022-12-24T16:33:22;9.50;80.74
47434;SHT31;33184;48.774;8.918;2022-12-24T16:38:43;9.36;80.94
47434;SHT31;33184;48.774;8.918;2022-12-24T16:44:22;9.30;81.49
47434;SHT31;33184;48.774;8.918;2022-12-24T16:49:42;9.29;81.62
47434;SHT31;33184;48.774;8.918;2022-12-24T16:55:03;9.23;81.99
47434;SHT31;33184;48.774;8.918;2022-12-24T17:00:24;9.25;82.21
47434;SHT31;33184;48.774;8.918;2022-12-24T17:05:44;9.25;82.40
47434;SHT31;33184;48.774;8.918;2022-12-24T17:11:05;9.23;82.71
47434;SHT31;33184;48.774;8.918;2022-12-24T17:16:26;9.18;83.12
47434;SHT31;33184;48.774;8.918;2022-12-24T17:21:46;9.20;83.17
47434;SHT31;33184;48.774;8.918;2022-12-24T17:27:07;9.30;83.11
47434;SHT31;33184;48.774;8.918;2022-12-24T17:32:27;9.35;82.97
47434;SHT31;33184;48.774;8.918;2022-12-24T17:37:48;9.30;83.08
47434;SHT31;33184;48.774;8.918;2022-12-24T17:43:08;9.27;83.26
47434;SHT31;33184;48.774;8.918;2022-12-24T17:48:30;9.27;83.63
47434;SHT31;33184;48.774;8.918;2022-12-24T17:53:50;9.33;83.59
47434;SHT31;33184;48.774;8.918;2022-12-24T17:59:11;9.36;83.56
47434;SHT31;33184;48.774;8.918;2022-12-24T18:04:31;9.37;83.55
47434;SHT31;33184;48.774;8.918;2022-12-24T18:09:52;9.36;83.55
47434;SHT31;33184;48.774;8.918;2022-12-24T18:15:17;9.36;83.30
47434;SHT31;33184;48.774;8.918;2022-12-24T18:20:39;9.39;82.96
47434;SHT31;33184;48.774;8.918;2022-12-24T18:26:00;9.39;82.67
47434;SHT31;33184;48.774;8.918;2022-12-24T18:31:22;9.40;82.44
47434;SHT31;33184;48.774;8.918;2022-12-24T18:36:43;9.42;82.15
47434;SHT31;33184;48.774;8.918;2022-12-24T18:42:04;9.35;82.28
47434;SHT31;33184;48.774;8.918;2022-12-24T18:47:24;9.26;82.51
47434;SHT31;33184;48.774;8.918;2022-12-24T18:52:49;9.19;82.67
47434;SHT31;33184;48.774;8.918;2022-12-24T18:58:09;9.16;82.69
47434;SHT31;33184;48.774;8.918;2022-12-24T19:03:30;9.15;82.76
47434;SHT31;33184;48.774;8.918;2022-12-24T19:08:51;9.12;82.88
47434;SHT31;33184;48.774;8.918;2022-12-24T19:14:12;9.11;82.98
47434;SHT31;33184;48.774;8.918;2022-12-24T19:19:32;9.03;83.12
47434;SHT31;33184;48.774;8.918;2022-12-24T19:24:53;9.05;83.21
47434;SHT31;33184;48.774;8.918;2022-12-24T19:30:14;9.06;83.30
47434;SHT31;33184;48.774;8.918;2022-12-24T19:35:34;8.99;83.56
47434;SHT31;33184;48.774;8.918;2022-12-24T19:40:55;8.96;84.00
47434;SHT31;33184;48.774;8.918;2022-12-24T19:46:18;8.93;84.41
47434;SHT31;33184;48.774;8.918;2022-12-24T19:51:39;8.91;84.63
47434;SHT31;33184;48.774;8.918;2022-12-24T19:57:00;8.89;84.95
47434;SHT31;33184;48.774;8.918;2022-12-24T20:02:21;8.92;85.01
47434;SHT31;33184;48.774;8.918;2022-12-24T20:07:41;8.85;85.33
47434;SHT31;33184;48.774;8.918;2022-12-24T20:13:02;8.79;85.70
47434;SHT31;33184;48.774;8.918;2022-12-24T20:18:22;8.74;86.07
47434;SHT31;33184;48.774;8.918;2022-12-24T20:23:43;8.68;86.36
47434;SHT31;33184;48.774;8.918;2022-12-24T20:29:06;8.67;86.42
47434;SHT31;33184;48.774;8.918;2022-12-24T20:34:26;8.61;86.70
47434;SHT31;33184;48.774;8.918;2022-12-24T20:39:47;8.55;87.37
47434;SHT31;33184;48.774;8.918;2022-12-24T20:45:08;8.48;87.83
47434;SHT31;33184;48.774;8.918;2022-12-24T20:50:28;8.47;88.04
47434;SHT31;33184;48.774;8.918;2022-12-24T20:55:50;8.47;88.28
47434;SHT31;33184;48.774;8.918;2022-12-24T21:01:14;8.42;88.45
47434;SHT31;33184;48.774;8.918;2022-12-24T21:06:36;8.38;88.76
47434;SHT31;33184;48.774;8.918;2022-12-24T21:11:56;8.38;88.91
47434;SHT31;33184;48.774;8.918;2022-12-24T21:17:17;8.41;89.02
47434;SHT31;33184;48.774;8.918;2022-12-24T21:22:37;8.44;89.21
47434;SHT31;33184;48.774;8.918;2022-12-24T21:27:58;8.50;89.06
47434;SHT31;33184;48.774;8.918;2022-12-24T21:33:18;8.52;89.13
47434;SHT31;33184;48.774;8.918;2022-12-24T21:38:39;8.50;89.09
47434;SHT31;33184;48.774;8.918;2022-12-24T21:44:00;8.50;89.14
47434;SHT31;33184;48.774;8.918;2022-12-24T21:49:21;8.48;89.28
47434;SHT31;33184;48.774;8.918;2022-12-24T21:55:00;8.44;89.53
47434;SHT31;33184;48.774;8.918;2022-12-24T22:00:20;8.41;89.55
47434;SHT31;33184;48.774;8.918;2022-12-24T22:05:42;8.37;89.75
47434;SHT31;33184;48.774;8.918;2022-12-24T22:11:03;8.30;90.06
47434;SHT31;33184;48.774;8.918;2022-12-24T22:16:49;8.21;90.38
47434;SHT31;33184;48.774;8.918;2022-12-24T22:22:10;8.14;90.67
47434;SHT31;33184;48.774;8.918;2022-12-24T22:27:30;8.10;90.85
47434;SHT31;33184;48.774;8.918;2022-12-24T22:32:51;8.05;91.13
47434;SHT31;33184;48.774;8.918;2022-12-24T22:38:11;7.97;91.33
47434;SHT31;33184;48.774;8.918;2022-12-24T22:43:32;7.97;91.56
47434;SHT31;33184;48.774;8.918;2022-12-24T22:48:52;7.93;91.62
47434;SHT31;33184;48.774;8.918;2022-12-24T22:54:13;7.96;91.67
47434;SHT31;33184;48.774;8.918;2022-12-24T22:59:34;7.92;91.71
47434;SHT31;33184;48.774;8.918;2022-12-24T23:04:55;7.92;91.69
47434;SHT31;33184;48.774;8.918;2022-12-24T23:10:15;7.89;91.66
47434;SHT31;33184;48.774;8.918;2022-12-24T23:15:37;7.87;91.73
47434;SHT31;33184;48.774;8.918;2022-12-24T23:21:03;7.81;91.85
47434;SHT31;33184;48.774;8.918;2022-12-24T23:26:25;7.79;91.98
47434;SHT31;33184;48.774;8.918;2022-12-24T23:31:46;7.82;92.08
47434;SHT31;33184;48.774;8.918;2022-12-24T23:37:06;7.81;92.03
47434;SHT31;33184;48.774;8.918;2022-12-24T23:42:27;7.86;92.02
47434;SHT31;33184;48.774;8.918;2022-12-24T23:47:47;7.89;91.88
47434;SHT31;33184;48.774;8.918;2022-12-24T23:53:08;7.85;91.90
47434;SHT31;33184;48.774;8.918;2022-12-24T23:58:29;7.85;91.79
